createdAt,value
2023-03-16T00:06:48.154Z,32.13
2023-03-16T00:14:06.367Z,26.90
2023-03-16T00:21:24.551Z,36.85
2023-03-16T00:28:44.441Z,31.65
2023-03-16T00:36:08.601Z,29.45
2023-03-16T00:43:28.326Z,39.88
2023-03-16T00:50:48.743Z,31.40
2023-03-16T00:58:06.956Z,29.73
2023-03-16T01:05:25.137Z,26.55
2023-03-16T01:12:46.199Z,25.92
2023-03-16T01:20:08.228Z,35.05
2023-03-16T01:27:26.397Z,29.33
2023-03-16T01:34:46.136Z,28.83
2023-03-16T01:42:05.346Z,23.70
2023-03-16T01:49:26.108Z,26.08
2023-03-16T01:56:52.394Z,26.45
2023-03-16T02:04:23.220Z,30.45
2023-03-16T02:11:44.071Z,27.88
2023-03-16T02:19:12.163Z,19.90
2023-03-16T02:26:36.243Z,17.60
2023-03-16T02:33:58.050Z,20.00
2023-03-16T02:41:18.713Z,21.95
2023-03-16T03:14:58.200Z,20.98
2023-03-16T03:50:56.643Z,19.13
2023-03-16T03:58:33.882Z,21.58
2023-03-16T04:05:57.704Z,17.27
2023-03-16T04:13:16.146Z,19.40
2023-03-16T04:20:34.580Z,13.85
2023-03-16T04:27:54.738Z,19.77
2023-03-16T04:35:17.879Z,17.20
2023-03-16T04:42:40.607Z,22.55
2023-03-16T04:50:04.756Z,22.97
2023-03-16T04:57:23.563Z,19.63
2023-03-16T05:04:44.666Z,19.50
2023-03-16T05:12:05.557Z,15.27
2023-03-16T05:19:24.370Z,18.05
2023-03-16T05:26:42.628Z,14.35
2023-03-16T05:34:05.550Z,22.30
2023-03-16T05:41:24.367Z,19.02
2023-03-16T05:48:57.864Z,18.98
2023-03-16T05:56:17.628Z,17.33
2023-03-16T06:03:38.591Z,11.93
2023-03-16T06:10:59.940Z,16.42
2023-03-16T06:18:19.661Z,18.60
2023-03-16T06:25:40.610Z,19.60
2023-03-16T06:33:00.448Z,20.90
2023-03-16T06:40:21.082Z,11.63
2023-03-16T06:47:39.428Z,10.38
2023-03-16T06:54:58.639Z,11.63
2023-03-16T07:02:20.357Z,11.18
2023-03-16T07:09:41.566Z,10.93
2023-03-16T07:17:00.493Z,14.15
2023-03-16T07:24:20.941Z,11.95
2023-03-16T07:31:39.413Z,12.73
2023-03-16T07:39:06.901Z,13.95
2023-03-16T07:46:27.942Z,9.93
2023-03-16T07:53:46.340Z,7.53
2023-03-16T08:01:11.008Z,9.95
2023-03-16T08:08:31.683Z,6.68
2023-03-16T08:15:55.987Z,11.93
2023-03-16T08:23:20.029Z,10.32
2023-03-16T08:30:45.958Z,10.30
2023-03-16T08:38:32.345Z,10.20
2023-03-16T08:45:56.047Z,5.28
2023-03-16T08:53:18.966Z,8.82
2023-03-16T09:00:37.653Z,9.02
2023-03-16T09:07:57.196Z,6.95
2023-03-16T09:15:15.506Z,9.68
2023-03-16T09:22:33.993Z,12.23
2023-03-16T09:29:58.876Z,7.82
2023-03-16T09:37:17.164Z,6.95
2023-03-16T09:44:41.103Z,7.63
2023-03-16T09:52:07.826Z,8.90
2023-03-16T09:59:30.007Z,7.30
2023-03-16T10:06:55.645Z,7.30
2023-03-16T10:14:20.261Z,6.20
2023-03-16T10:21:41.399Z,8.27
2023-03-16T10:29:01.720Z,7.70
2023-03-16T10:36:26.882Z,9.18
2023-03-16T10:43:45.168Z,8.93
2023-03-16T10:51:05.762Z,10.00
2023-03-16T10:58:27.254Z,5.63
2023-03-16T11:05:47.356Z,11.03
2023-03-16T11:13:12.705Z,7.28
2023-03-16T11:20:35.116Z,4.72
2023-03-16T11:27:56.735Z,6.53
2023-03-16T11:35:17.768Z,5.47
2023-03-16T11:42:40.196Z,8.27
2023-03-16T11:50:01.649Z,6.20
2023-03-16T11:57:32.846Z,6.85
2023-03-16T12:05:01.730Z,7.40
2023-03-16T12:12:30.812Z,5.55
2023-03-16T12:19:52.997Z,7.70
2023-03-16T12:27:17.783Z,6.28
2023-03-16T12:34:41.108Z,6.07
2023-03-16T12:42:08.513Z,5.90
2023-03-16T12:49:28.886Z,7.97
2023-03-16T12:56:48.209Z,5.25
2023-03-16T13:04:12.655Z,6.15
2023-03-16T13:11:45.816Z,3.50
2023-03-16T13:19:18.972Z,3.97
2023-03-16T13:26:42.156Z,30.80
2023-03-16T13:34:02.894Z,3.92
2023-03-16T13:41:21.235Z,4.57
2023-03-16T13:48:42.414Z,2.92
2023-03-16T13:56:02.276Z,4.43
2023-03-16T14:03:22.475Z,6.70
2023-03-16T14:10:43.784Z,3.47
2023-03-16T14:18:14.613Z,2.17
2023-03-16T14:25:34.648Z,3.83
2023-03-16T14:32:59.881Z,5.10
2023-03-16T14:40:27.343Z,6.13
2023-03-16T14:47:46.862Z,7.15
2023-03-16T14:55:19.397Z,4.57
2023-03-16T15:02:37.949Z,8.20
2023-03-16T15:09:58.404Z,5.55
2023-03-16T15:17:18.140Z,2.75
2023-03-16T15:24:36.574Z,6.80
2023-03-16T15:31:55.018Z,3.47
2023-03-16T15:39:21.664Z,9.80
2023-03-16T15:46:40.179Z,6.32
2023-03-16T15:54:00.623Z,3.80
2023-03-16T16:01:24.261Z,5.50
2023-03-16T16:08:42.556Z,7.82
2023-03-16T16:16:01.490Z,5.95
2023-03-16T16:23:21.217Z,9.95
2023-03-16T16:30:39.981Z,9.32
2023-03-16T16:37:58.297Z,11.60
2023-03-16T16:45:20.916Z,10.90
2023-03-16T16:52:39.029Z,16.90
2023-03-16T16:59:58.672Z,13.63
2023-03-16T17:07:18.439Z,20.13
2023-03-16T17:14:37.106Z,28.05
2023-03-16T17:21:57.411Z,32.42
2023-03-16T17:29:21.163Z,20.08
2023-03-16T17:43:59.246Z,12.35
2023-03-16T17:51:19.421Z,15.98
2023-03-16T17:58:38.330Z,23.95
2023-03-16T18:05:56.936Z,32.63
2023-03-16T18:13:20.907Z,31.90
2023-03-16T18:20:39.150Z,31.02
2023-03-16T18:27:58.141Z,29.35
2023-03-16T18:35:19.536Z,43.60
2023-03-16T18:42:38.438Z,46.47
2023-03-16T18:50:00.341Z,39.33
2023-03-16T18:57:22.484Z,36.22
2023-03-16T19:04:40.685Z,29.50
2023-03-16T19:12:00.293Z,32.83
2023-03-16T19:19:22.285Z,29.23
2023-03-16T19:26:40.936Z,23.40
2023-03-16T19:33:59.932Z,28.83
2023-03-16T19:41:27.186Z,25.40
2023-03-16T19:48:47.811Z,24.70
2023-03-16T19:56:07.365Z,23.40
2023-03-16T20:03:27.659Z,31.15
2023-03-16T20:10:47.347Z,32.80
2023-03-16T20:18:07.203Z,31.73
2023-03-16T20:25:32.376Z,31.50
2023-03-16T20:32:51.515Z,34.22
2023-03-16T20:40:10.517Z,37.25
2023-03-16T20:47:30.122Z,45.58
2023-03-16T20:54:48.529Z,42.20
2023-03-16T21:02:21.006Z,55.58
2023-03-16T21:09:42.122Z,62.65
2023-03-16T21:17:03.459Z,60.08
2023-03-16T21:24:22.025Z,58.22
2023-03-16T21:31:42.021Z,55.40
2023-03-16T21:39:00.343Z,61.97
2023-03-16T21:46:20.028Z,50.75
2023-03-16T21:53:40.522Z,53.70
2023-03-16T22:00:59.406Z,61.20
2023-03-16T22:08:19.855Z,57.00
2023-03-16T22:15:40.026Z,59.95
2023-03-16T22:22:58.368Z,58.95
2023-03-16T22:30:18.862Z,55.28
2023-03-16T22:37:38.372Z,57.72
2023-03-16T22:44:56.578Z,54.83
2023-03-16T22:52:15.098Z,52.28
2023-03-16T22:59:35.749Z,62.70
2023-03-16T23:06:54.866Z,52.88
2023-03-16T23:14:14.345Z,45.83
2023-03-16T23:21:34.134Z,47.55
2023-03-16T23:28:52.920Z,51.00
2023-03-16T23:36:15.529Z,51.58
2023-03-16T23:43:35.507Z,41.07
2023-03-16T23:50:55.536Z,49.63
2023-03-16T23:58:16.113Z,54.33
